Time;durP1;ratioP1;P1;durP2;ratioP2;P2;SDS_P1;SDS_P2;PMS_P1;PMS_P2;Temp;Humidity;BMP_temperature;BMP_pressure;BME280_temperature;BME280_humidity;BME280_pressure;Samples;Min_cycle;Max_cycle;Signal;HPM_P1;HPM_P2
2021/12/25 00:01:22;;;;;;;7.80;6.90;;;6.00;99.90;;;;;;5034127;28;20205;-70
2021/12/25 00:03:51;;;;;;;7.97;7.17;;;6.00;99.90;;;;;;5034118;28;20199;-71
2021/12/25 00:06:18;;;;;;;8.77;7.93;;;5.90;99.90;;;;;;5032535;28;20229;-73
2021/12/25 00:08:48;;;;;;;8.13;7.27;;;5.90;99.90;;;;;;5024505;28;20217;-70
2021/12/25 00:11:22;;;;;;;9.10;8.20;;;6.00;99.90;;;;;;5033931;28;20197;-69
2021/12/25 00:13:50;;;;;;;9.97;8.97;;;6.00;99.90;;;;;;5033395;28;20197;-71
2021/12/25 00:16:17;;;;;;;9.23;8.33;;;6.10;99.90;;;;;;5042463;28;20220;-70
2021/12/25 00:18:44;;;;;;;10.60;9.23;;;6.00;99.90;;;;;;5054745;28;20678;-70
2021/12/25 00:21:12;;;;;;;12.03;10.80;;;6.00;99.90;;;;;;5051378;28;20194;-70
2021/12/25 00:24:12;;;;;;;12.90;11.60;;;6.00;99.90;;;;;;5033785;28;20213;-70
2021/12/25 00:26:48;;;;;;;14.13;12.63;;;6.10;99.90;;;;;;5039398;28;20214;-70
2021/12/25 00:29:34;;;;;;;14.30;12.77;;;6.00;99.90;;;;;;5023904;28;20571;-70
2021/12/25 00:32:29;;;;;;;14.73;13.10;;;5.60;99.90;;;;;;5050982;28;20178;-70
2021/12/25 00:34:56;;;;;;;13.43;12.03;;;5.70;99.90;;;;;;5052368;28;20190;-70
2021/12/25 00:37:25;;;;;;;12.30;11.00;;;5.70;99.90;;;;;;5037068;28;20214;-70
2021/12/25 00:39:56;;;;;;;11.53;10.33;;;5.50;99.90;;;;;;5019267;28;20545;-70
2021/12/25 00:42:23;;;;;;;13.33;11.93;;;5.40;99.90;;;;;;5041934;28;20190;-69
2021/12/25 00:44:51;;;;;;;13.20;11.33;;;5.20;99.90;;;;;;5053443;28;20570;-70
2021/12/25 00:47:18;;;;;;;12.90;11.57;;;5.30;99.90;;;;;;5036266;28;20230;-70
2021/12/25 00:49:45;;;;;;;12.90;11.53;;;5.50;99.90;;;;;;5027849;28;20204;-70
2021/12/25 00:52:14;;;;;;;12.47;11.20;;;5.60;99.90;;;;;;5035423;28;20202;-70
2021/12/25 00:54:41;;;;;;;11.87;10.67;;;5.60;99.90;;;;;;5034623;28;20208;-70
2021/12/25 00:57:10;;;;;;;12.70;11.40;;;5.60;99.90;;;;;;5053061;28;20225;-75
2021/12/25 00:59:37;;;;;;;11.43;10.30;;;5.50;99.90;;;;;;5029375;28;20209;-72
2021/12/25 01:02:12;;;;;;;13.10;11.33;;;5.40;99.90;;;;;;5055404;28;20204;-71
2021/12/25 01:04:41;;;;;;;12.03;10.77;;;5.20;99.90;;;;;;5056207;28;20189;-71
2021/12/25 01:07:09;;;;;;;12.33;10.37;;;5.10;99.90;;;;;;5037554;28;20222;-70
2021/12/25 01:09:37;;;;;;;11.50;10.33;;;5.20;99.90;;;;;;5036594;28;20677;-70
2021/12/25 01:12:06;;;;;;;11.40;10.30;;;5.20;99.90;;;;;;5039237;28;20191;-70
2021/12/25 01:14:44;;;;;;;10.00;9.00;;;5.20;99.90;;;;;;5036881;28;20201;-70
2021/12/25 01:17:58;;;;;;;10.27;9.27;;;5.30;99.90;;;;;;5017920;28;20228;-70
2021/12/25 01:20:46;;;;;;;9.30;8.37;;;5.10;99.90;;;;;;5045059;28;20202;-70
2021/12/25 01:23:54;;;;;;;8.93;8.10;;;5.20;99.90;;;;;;5049047;28;20193;-70
2021/12/25 01:29:44;;;;;;;9.60;8.70;;;5.00;99.90;;;;;;5033148;28;20207;-71
2021/12/25 01:35:27;;;;;;;9.70;8.70;;;5.00;99.90;;;;;;5031346;28;20545;-71
2021/12/25 01:38:36;;;;;;;9.27;8.37;;;4.80;99.90;;;;;;5039634;28;20240;-70
2021/12/25 01:41:52;;;;;;;9.07;8.17;;;4.70;99.90;;;;;;5057246;28;20180;-71
2021/12/25 01:47:45;;;;;;;9.57;8.67;;;4.80;99.90;;;;;;5014490;28;20211;-70
2021/12/25 01:50:12;;;;;;;10.67;9.57;;;4.60;99.90;;;;;;5032997;28;20205;-71
2021/12/25 01:52:40;;;;;;;11.70;10.50;;;4.90;99.90;;;;;;5039438;28;20198;-70
2021/12/25 01:55:11;;;;;;;10.80;9.70;;;4.80;99.90;;;;;;5036890;28;20193;-70
2021/12/25 01:57:40;;;;;;;12.27;10.33;;;4.70;99.90;;;;;;5023232;28;20204;-71
2021/12/25 02:00:12;;;;;;;11.43;10.23;;;4.90;99.90;;;;;;5028685;28;20199;-70
2021/12/25 02:02:47;;;;;;;11.17;10.07;;;4.90;99.90;;;;;;5056539;28;20195;-71
2021/12/25 02:05:15;;;;;;;11.07;9.97;;;4.70;99.90;;;;;;5034281;28;20191;-69
2021/12/25 02:07:43;;;;;;;11.53;10.30;;;4.50;99.90;;;;;;5056971;28;20634;-70
2021/12/25 02:10:24;;;;;;;10.67;9.57;;;4.40;99.90;;;;;;5027863;28;20203;-71
2021/12/25 02:12:52;;;;;;;11.43;10.23;;;4.60;99.90;;;;;;5033603;28;20201;-70
2021/12/25 02:15:23;;;;;;;11.17;10.07;;;4.40;99.90;;;;;;5031612;28;20203;-70
2021/12/25 02:18:10;;;;;;;11.73;10.40;;;4.40;99.90;;;;;;5027781;28;20231;-70
2021/12/25 02:21:07;;;;;;;11.30;10.17;;;4.40;99.90;;;;;;5038623;28;20202;-70
2021/12/25 02:23:36;;;;;;;12.70;11.30;;;4.50;99.90;;;;;;5031282;28;20701;-70
2021/12/25 02:26:04;;;;;;;12.13;10.87;;;4.60;99.90;;;;;;5031780;28;20231;-73
2021/12/25 02:28:33;;;;;;;12.40;11.10;;;4.70;99.90;;;;;;5025963;28;20744;-70
2021/12/25 02:31:05;;;;;;;13.03;11.63;;;4.60;99.90;;;;;;5047770;28;20211;-70
2021/12/25 02:33:33;;;;;;;11.87;10.67;;;4.40;99.90;;;;;;5031201;28;20219;-71
2021/12/25 02:36:03;;;;;;;11.07;9.97;;;4.60;99.90;;;;;;5033262;28;20243;-70
2021/12/25 02:38:32;;;;;;;12.60;11.23;;;4.50;99.90;;;;;;5029430;28;20222;-70
2021/12/25 02:40:59;;;;;;;11.27;10.07;;;4.40;99.90;;;;;;5031125;28;20198;-70
2021/12/25 02:43:27;;;;;;;12.63;11.33;;;4.50;99.90;;;;;;5030395;28;20206;-70
2021/12/25 02:45:56;;;;;;;11.97;10.70;;;4.50;99.90;;;;;;5030656;28;20227;-70
2021/12/25 02:48:24;;;;;;;12.73;10.90;;;4.50;99.90;;;;;;5027869;28;20196;-70
2021/12/25 02:50:52;;;;;;;12.33;11.07;;;4.40;99.90;;;;;;5045492;28;20195;-69
2021/12/25 02:53:21;;;;;;;13.17;11.77;;;4.20;99.90;;;;;;5030522;28;20206;-70
2021/12/25 02:55:50;;;;;;;11.97;10.77;;;4.00;99.90;;;;;;5030759;28;20226;-72
2021/12/25 02:58:20;;;;;;;13.17;11.87;;;3.80;99.90;;;;;;5023752;28;20216;-70
2021/12/25 03:00:52;;;;;;;12.20;11.00;;;4.00;99.90;;;;;;5035587;28;20199;-70
2021/12/25 03:03:20;;;;;;;12.10;10.70;;;4.20;99.90;;;;;;5030413;28;20673;-70
2021/12/25 03:05:48;;;;;;;13.17;11.50;;;4.10;99.90;;;;;;5030848;28;20218;-70
2021/12/25 03:08:16;;;;;;;11.90;10.70;;;4.30;99.90;;;;;;5026320;28;20203;-70
2021/12/25 03:11:14;;;;;;;11.80;10.37;;;4.00;99.90;;;;;;5028848;28;20202;-69
2021/12/25 03:13:45;;;;;;;13.43;11.20;;;4.10;99.90;;;;;;5031600;28;20187;-70
2021/12/25 03:16:15;;;;;;;13.90;11.53;;;4.20;99.90;;;;;;5028170;28;20223;-70
2021/12/25 03:18:48;;;;;;;12.60;11.30;;;4.20;99.90;;;;;;5029951;28;20231;-70
2021/12/25 03:21:18;;;;;;;12.20;10.90;;;4.30;99.90;;;;;;5031266;28;20195;-71
2021/12/25 03:23:48;;;;;;;12.00;10.63;;;4.10;99.90;;;;;;5021145;28;20564;-70
2021/12/25 03:26:17;;;;;;;12.57;10.73;;;4.10;99.90;;;;;;5029448;28;20234;-69
2021/12/25 03:28:46;;;;;;;12.80;11.20;;;4.20;99.90;;;;;;5021086;28;20195;-70
2021/12/25 03:31:18;;;;;;;12.80;10.97;;;4.10;99.90;;;;;;5042753;28;20201;-69
2021/12/25 03:33:47;;;;;;;12.43;10.67;;;4.30;99.90;;;;;;5024037;28;20201;-71
2021/12/25 03:36:15;;;;;;;12.80;11.43;;;4.30;99.90;;;;;;5049943;28;20214;-70
2021/12/25 03:38:43;;;;;;;13.37;11.23;;;4.40;99.90;;;;;;5031954;28;20223;-70
2021/12/25 03:41:10;;;;;;;13.43;11.47;;;4.20;99.90;;;;;;5039340;28;20205;-70
2021/12/25 03:43:58;;;;;;;13.80;11.97;;;4.00;99.90;;;;;;5046764;28;20198;-70
2021/12/25 03:46:28;;;;;;;12.80;11.33;;;4.20;99.90;;;;;;5035466;28;20587;-71
2021/12/25 03:49:09;;;;;;;12.87;11.37;;;4.20;99.90;;;;;;5029711;28;20202;-69
2021/12/25 04:00:08;;;;;;;12.53;10.00;;;3.90;99.90;;;;;;4973324;28;20204;-70
2021/12/25 04:02:54;;;;;;;14.43;12.03;;;3.70;99.90;;;;;;5014962;28;20206;-70
2021/12/25 04:05:29;;;;;;;13.97;11.73;;;3.60;99.90;;;;;;5027177;28;20210;-69
2021/12/25 04:08:02;;;;;;;13.93;11.50;;;3.90;99.90;;;;;;5031303;28;20194;-70
2021/12/25 04:10:34;;;;;;;13.00;11.67;;;3.80;99.90;;;;;;5029744;28;20200;-70
2021/12/25 04:13:02;;;;;;;13.97;11.47;;;4.00;99.90;;;;;;5045178;28;20198;-70
2021/12/25 04:15:31;;;;;;;11.93;10.70;;;3.90;99.90;;;;;;5034136;28;20205;-69
2021/12/25 04:17:58;;;;;;;13.37;11.40;;;3.90;99.90;;;;;;5026907;28;20238;-70
2021/12/25 04:20:26;;;;;;;13.33;11.87;;;3.70;99.90;;;;;;5030010;28;20225;-70
2021/12/25 04:22:58;;;;;;;12.30;10.77;;;3.80;99.90;;;;;;5033390;28;20195;-70
2021/12/25 04:25:29;;;;;;;12.63;11.20;;;4.00;99.90;;;;;;5063371;28;20566;-70
2021/12/25 04:28:03;;;;;;;13.33;10.30;;;3.90;99.90;;;;;;5031134;28;20197;-70
2021/12/25 04:30:41;;;;;;;12.83;10.00;;;4.00;99.90;;;;;;5046349;28;20205;-70
2021/12/25 04:42:34;;;;;;;11.77;10.50;;;4.10;99.90;;;;;;5037503;28;20198;-70
2021/12/25 04:50:24;;;;;;;10.03;9.03;;;3.60;99.90;;;;;;5024437;28;20204;-70
2021/12/25 05:04:15;;;;;;;10.47;9.40;;;3.60;99.90;;;;;;5055446;28;20651;-70
2021/12/25 05:07:05;;;;;;;11.00;9.90;;;3.60;99.90;;;;;;5023482;28;20222;-69
2021/12/25 05:09:37;;;;;;;10.27;9.00;;;3.20;99.90;;;;;;5043712;28;20209;-69
2021/12/25 05:12:06;;;;;;;10.53;9.50;;;3.40;99.90;;;;;;5025267;28;20199;-70
2021/12/25 05:14:34;;;;;;;10.27;8.73;;;3.30;99.90;;;;;;5029302;28;20192;-70
2021/12/25 05:17:01;;;;;;;9.50;8.50;;;3.40;99.90;;;;;;5045777;28;20219;-69
2021/12/25 05:19:30;;;;;;;9.33;8.43;;;2.90;99.90;;;;;;5034404;28;20218;-71
2021/12/25 05:21:58;;;;;;;9.17;8.20;;;3.10;99.90;;;;;;5043332;28;20198;-70
2021/12/25 05:24:27;;;;;;;10.27;8.60;;;3.00;99.90;;;;;;5017421;28;20206;-69
2021/12/25 05:26:58;;;;;;;9.60;7.90;;;3.00;99.90;;;;;;5057266;28;20216;-70
2021/12/25 05:29:26;;;;;;;9.63;8.57;;;3.30;99.90;;;;;;5041265;28;20198;-70
2021/12/25 05:31:54;;;;;;;9.70;8.37;;;3.10;99.90;;;;;;5035322;28;20211;-70
2021/12/25 05:34:49;;;;;;;10.17;8.67;;;3.20;99.90;;;;;;5057672;28;20204;-70
2021/12/25 05:37:24;;;;;;;9.70;8.70;;;3.40;99.90;;;;;;5037276;28;20222;-70
2021/12/25 05:40:05;;;;;;;11.27;10.07;;;3.10;99.90;;;;;;5058612;28;20217;-70
2021/12/25 05:42:37;;;;;;;9.57;8.63;;;3.20;99.90;;;;;;5035633;28;20199;-70
2021/12/25 05:45:06;;;;;;;9.87;8.37;;;3.30;99.90;;;;;;5044550;28;20194;-72
2021/12/25 05:47:42;;;;;;;9.13;8.07;;;3.50;99.90;;;;;;5027650;28;20207;-70
2021/12/25 05:50:27;;;;;;;8.13;7.23;;;3.10;99.90;;;;;;5031638;28;20217;-70
2021/12/25 05:53:05;;;;;;;9.20;8.30;;;3.20;99.90;;;;;;5040734;28;20194;-70
2021/12/25 05:56:01;;;;;;;8.33;7.53;;;3.10;99.90;;;;;;5069616;28;20230;-72
2021/12/25 05:58:47;;;;;;;9.00;7.80;;;3.00;99.90;;;;;;5049250;28;20211;-71
2021/12/25 06:01:34;;;;;;;9.87;7.77;;;3.20;99.90;;;;;;5038720;28;20206;-70
2021/12/25 06:04:02;;;;;;;8.93;8.03;;;3.00;99.90;;;;;;5038100;28;20217;-69
2021/12/25 06:06:31;;;;;;;8.70;7.80;;;3.10;99.90;;;;;;5032357;28;20230;-71
2021/12/25 06:08:58;;;;;;;8.20;6.87;;;3.20;99.90;;;;;;5050617;28;20221;-70
2021/12/25 06:11:26;;;;;;;9.07;7.57;;;3.30;99.90;;;;;;5053641;28;20202;-71
2021/12/25 06:14:07;;;;;;;6.53;5.97;;;3.10;99.90;;;;;;5038752;28;20191;-70
2021/12/25 06:16:45;;;;;;;8.10;7.10;;;3.40;99.90;;;;;;5044369;28;20585;-72
2021/12/25 06:19:38;;;;;;;8.57;7.53;;;5.20;99.90;;;;;;5023331;28;20222;-72
2021/12/25 06:22:45;;;;;;;9.13;7.20;;;4.90;99.90;;;;;;4972966;28;20586;-71
2021/12/25 06:25:22;;;;;;;6.20;5.63;;;4.20;99.90;;;;;;4959087;28;20211;-72
2021/12/25 06:28:37;;;;;;;7.63;6.83;;;4.70;99.90;;;;;;5017540;28;20201;-71
2021/12/25 06:31:24;;;;;;;6.37;5.87;;;4.30;99.90;;;;;;5054104;28;20197;-70
2021/12/25 06:34:14;;;;;;;7.90;6.60;;;3.80;99.90;;;;;;5030767;28;20349;-70
2021/12/25 06:37:05;;;;;;;7.77;6.30;;;3.60;99.90;;;;;;5019817;28;20230;-71
2021/12/25 06:39:56;;;;;;;8.93;6.60;;;3.30;99.90;;;;;;5021877;28;20679;-70
2021/12/25 06:42:33;;;;;;;7.97;6.93;;;2.90;99.90;;;;;;5029312;28;20727;-70
2021/12/25 06:45:28;;;;;;;7.77;6.57;;;3.00;99.90;;;;;;5033548;28;20213;-70
2021/12/25 06:48:14;;;;;;;9.23;6.93;;;3.20;99.90;;;;;;5023166;28;20198;-71
2021/12/25 06:51:05;;;;;;;8.07;7.27;;;3.20;99.90;;;;;;5057230;28;20550;-69
2021/12/25 06:54:04;;;;;;;7.80;7.07;;;3.00;99.90;;;;;;5039925;28;20202;-70
2021/12/25 06:56:53;;;;;;;8.97;8.13;;;2.90;99.90;;;;;;5046745;28;20221;-70
2021/12/25 06:59:26;;;;;;;8.37;7.57;;;2.70;99.90;;;;;;5018616;28;20692;-70
2021/12/25 07:01:53;;;;;;;9.20;8.17;;;2.80;99.90;;;;;;5029238;28;20223;-70
2021/12/25 07:04:51;;;;;;;9.53;8.53;;;3.00;99.90;;;;;;5011935;28;20209;-70
2021/12/25 07:07:39;;;;;;;8.67;7.77;;;2.90;99.90;;;;;;5038391;28;20212;-70
2021/12/25 07:10:36;;;;;;;8.97;7.63;;;3.00;99.90;;;;;;5033403;28;20209;-74
2021/12/25 07:13:33;;;;;;;8.63;7.67;;;2.80;99.90;;;;;;5031817;28;20198;-70
2021/12/25 07:16:20;;;;;;;9.13;8.23;;;2.90;99.90;;;;;;5049977;28;20589;-70
2021/12/25 07:19:12;;;;;;;9.80;7.43;;;2.90;99.90;;;;;;5052006;28;20205;-69
2021/12/25 07:21:58;;;;;;;9.73;7.93;;;2.80;99.90;;;;;;5057878;28;20204;-69
2021/12/25 07:28:17;;;;;;;11.67;9.17;;;2.60;99.90;;;;;;5025413;28;20658;-69
2021/12/25 07:30:50;;;;;;;11.67;9.37;;;2.70;99.90;;;;;;5032741;28;20210;-70
2021/12/25 07:33:31;;;;;;;11.73;9.43;;;2.80;99.90;;;;;;5051984;28;20201;-72
2021/12/25 07:36:02;;;;;;;10.93;9.40;;;2.90;99.90;;;;;;5030922;28;20672;-72
2021/12/25 07:38:29;;;;;;;9.70;8.63;;;2.60;99.90;;;;;;5047370;28;20193;-72
2021/12/25 07:40:56;;;;;;;10.83;8.40;;;2.60;99.90;;;;;;5039476;28;20204;-72
2021/12/25 07:43:36;;;;;;;10.30;8.60;;;2.80;99.90;;;;;;5031290;28;20562;-72
2021/12/25 07:46:22;;;;;;;10.13;9.13;;;2.60;99.90;;;;;;5028468;28;20229;-72
2021/12/25 07:48:49;;;;;;;8.70;7.80;;;2.30;99.90;;;;;;5027537;28;20201;-72
2021/12/25 07:51:17;;;;;;;8.90;8.00;;;2.30;99.90;;;;;;5048795;28;20190;-72
2021/12/25 07:53:45;;;;;;;9.60;8.00;;;2.50;99.90;;;;;;5049104;28;20190;-72
2021/12/25 07:56:13;;;;;;;11.53;7.93;;;2.40;99.90;;;;;;5044724;28;20239;-72
2021/12/25 07:58:42;;;;;;;10.10;8.23;;;2.50;99.90;;;;;;5037865;28;20226;-72
2021/12/25 08:01:09;;;;;;;12.03;9.67;;;2.50;99.90;;;;;;5039595;28;20222;-71
2021/12/25 08:03:50;;;;;;;7.77;6.20;;;2.40;99.90;;;;;;5034023;28;20198;-72
2021/12/25 08:06:18;;;;;;;7.70;6.37;;;2.30;99.90;;;;;;5027117;28;20222;-72
2021/12/25 08:08:46;;;;;;;6.90;6.10;;;2.20;99.90;;;;;;5044040;28;20216;-73
2021/12/25 08:11:14;;;;;;;6.63;5.57;;;2.30;99.90;;;;;;5047993;28;20544;-72
2021/12/25 08:13:41;;;;;;;8.67;5.67;;;2.30;99.90;;;;;;5030353;28;20199;-73
2021/12/25 08:16:11;;;;;;;7.47;5.13;;;2.30;99.90;;;;;;5023449;28;20685;-72
2021/12/25 08:18:39;;;;;;;6.60;4.90;;;2.20;99.90;;;;;;5042663;28;20195;-71
2021/12/25 08:21:45;;;;;;;5.83;4.83;;;2.00;99.90;;;;;;5052440;28;20211;-75
2021/12/25 08:24:33;;;;;;;7.10;4.80;;;2.40;99.90;;;;;;5022364;28;20217;-72
2021/12/25 08:27:19;;;;;;;6.33;4.80;;;2.30;99.90;;;;;;5051222;28;20218;-72
2021/12/25 08:30:10;;;;;;;5.30;4.80;;;2.00;99.90;;;;;;5051814;28;20203;-72
2021/12/25 08:33:03;;;;;;;4.90;4.30;;;2.00;99.90;;;;;;5052636;28;20209;-72
2021/12/25 08:35:57;;;;;;;5.00;4.23;;;2.10;99.90;;;;;;5049149;28;20235;-72
2021/12/25 08:38:26;;;;;;;5.43;4.63;;;2.20;99.90;;;;;;5030763;28;20210;-72
2021/12/25 08:40:55;;;;;;;4.27;3.87;;;2.00;99.90;;;;;;5052656;28;20221;-74
2021/12/25 08:43:25;;;;;;;4.10;3.80;;;1.90;99.90;;;;;;5048595;28;20203;-72
2021/12/25 08:46:02;;;;;;;4.73;3.90;;;2.10;99.90;;;;;;5037866;28;20240;-72
2021/12/25 08:48:30;;;;;;;5.50;3.97;;;2.10;99.90;;;;;;5028546;28;20206;-72
2021/12/25 08:50:59;;;;;;;3.93;3.53;;;2.40;99.90;;;;;;5043690;28;20195;-73
2021/12/25 08:53:29;;;;;;;3.67;3.27;;;2.20;99.90;;;;;;5036693;28;20289;-72
2021/12/25 08:55:57;;;;;;;3.70;3.40;;;2.00;99.90;;;;;;5042159;28;20689;-73
2021/12/25 08:58:34;;;;;;;4.23;2.97;;;2.20;99.90;;;;;;5049246;28;20194;-72
2021/12/25 09:01:07;;;;;;;3.37;3.07;;;2.10;99.90;;;;;;5047682;28;20225;-72
2021/12/25 09:03:34;;;;;;;3.70;3.30;;;1.90;99.90;;;;;;5042135;28;20199;-71
2021/12/25 09:06:03;;;;;;;3.90;3.33;;;2.10;99.90;;;;;;5036042;28;20236;-72
2021/12/25 09:08:34;;;;;;;4.60;3.80;;;2.20;99.90;;;;;;5050715;28;20204;-71
2021/12/25 09:11:02;;;;;;;3.20;2.90;;;2.20;99.90;;;;;;5035629;28;20648;-71
2021/12/25 09:13:29;;;;;;;4.00;3.00;;;2.10;99.90;;;;;;5038926;28;20682;-72
2021/12/25 09:15:56;;;;;;;4.40;3.20;;;2.30;99.90;;;;;;5056127;28;20225;-77
2021/12/25 09:18:24;;;;;;;3.47;2.97;;;2.30;99.90;;;;;;5027240;28;20203;-72
2021/12/25 09:20:58;;;;;;;4.57;2.60;;;2.30;99.90;;;;;;5031094;28;20219;-73
2021/12/25 09:23:34;;;;;;;4.93;2.80;;;2.20;99.90;;;;;;5029033;28;20195;-73
2021/12/25 09:26:02;;;;;;;4.23;3.00;;;2.00;99.90;;;;;;5059316;28;20228;-72
2021/12/25 09:28:29;;;;;;;3.63;2.80;;;1.90;99.90;;;;;;5029687;28;20217;-72
2021/12/25 09:30:57;;;;;;;3.77;2.83;;;2.00;99.90;;;;;;5037532;28;20802;-73
2021/12/25 09:33:24;;;;;;;4.77;2.73;;;2.00;99.90;;;;;;5035590;28;20564;-73
2021/12/25 09:35:53;;;;;;;5.07;3.03;;;2.00;99.90;;;;;;5030953;28;20558;-73
2021/12/25 09:39:05;;;;;;;3.60;2.70;;;1.90;99.90;;;;;;5045657;28;20279;-73
2021/12/25 09:41:34;;;;;;;3.53;2.27;;;1.80;99.90;;;;;;5047765;28;20206;-73
2021/12/25 09:44:14;;;;;;;2.57;2.37;;;1.80;99.90;;;;;;5035389;28;20212;-73
2021/12/25 09:46:44;;;;;;;4.60;2.67;;;1.90;99.90;;;;;;5048176;28;20553;-73
2021/12/25 09:49:12;;;;;;;5.17;2.80;;;1.90;99.90;;;;;;5034686;28;20221;-73
2021/12/25 09:51:40;;;;;;;3.03;1.97;;;2.10;99.90;;;;;;5033865;28;20655;-73
2021/12/25 09:54:18;;;;;;;3.03;1.93;;;1.80;99.90;;;;;;5031213;28;20950;-73
2021/12/25 09:56:56;;;;;;;4.87;3.23;;;2.00;99.90;;;;;;5028465;28;20222;-72
2021/12/25 09:59:23;;;;;;;3.60;2.50;;;2.10;99.90;;;;;;5034225;28;20212;-73
2021/12/25 10:02:03;;;;;;;3.70;2.40;;;2.10;99.90;;;;;;5045190;28;20579;-73
2021/12/25 10:04:34;;;;;;;2.90;1.97;;;2.00;99.90;;;;;;5039774;28;20203;-72
2021/12/25 10:07:17;;;;;;;3.23;2.33;;;1.90;99.90;;;;;;5032009;28;20699;-72
2021/12/25 10:09:55;;;;;;;3.47;1.90;;;2.00;99.90;;;;;;5042986;28;20213;-72
2021/12/25 10:12:29;;;;;;;4.93;2.30;;;1.60;99.90;;;;;;5032033;28;20199;-72
2021/12/25 10:15:09;;;;;;;2.60;2.27;;;1.80;99.90;;;;;;5033826;28;20209;-73
2021/12/25 10:17:47;;;;;;;3.80;2.40;;;1.80;99.90;;;;;;5050108;28;20220;-73
2021/12/25 10:20:34;;;;;;;7.07;2.60;;;1.90;99.90;;;;;;5024740;28;20210;-73
2021/12/25 10:23:13;;;;;;;2.60;2.23;;;2.00;99.90;;;;;;5039077;28;20203;-73
2021/12/25 10:25:51;;;;;;;2.77;1.83;;;1.90;99.90;;;;;;5034056;28;20225;-72
2021/12/25 10:28:31;;;;;;;3.70;2.60;;;1.40;99.90;;;;;;5041771;28;20210;-72
2021/12/25 10:31:02;;;;;;;3.03;2.20;;;1.80;99.90;;;;;;5043007;28;20188;-73
2021/12/25 10:33:35;;;;;;;3.37;2.10;;;1.80;99.90;;;;;;5047379;28;20185;-72
2021/12/25 10:36:08;;;;;;;4.27;2.57;;;1.80;99.90;;;;;;5034437;28;20699;-73
2021/12/25 10:38:36;;;;;;;4.20;2.43;;;1.80;99.90;;;;;;5047382;28;20198;-73
2021/12/25 10:41:19;;;;;;;2.77;1.90;;;1.70;99.90;;;;;;5049805;28;20217;-73
2021/12/25 10:43:49;;;;;;;3.67;2.10;;;1.80;99.90;;;;;;5050340;28;20198;-73
2021/12/25 10:46:21;;;;;;;3.57;2.67;;;1.70;99.90;;;;;;5044377;28;20218;-73
2021/12/25 10:48:49;;;;;;;2.67;2.17;;;2.10;99.90;;;;;;5032228;28;20209;-72
2021/12/25 10:51:28;;;;;;;3.07;2.10;;;2.10;99.90;;;;;;5049404;28;20210;-72
2021/12/25 10:53:56;;;;;;;4.67;2.53;;;2.20;99.90;;;;;;5033413;28;20223;-72
2021/12/25 10:56:33;;;;;;;3.03;2.37;;;2.20;99.90;;;;;;5054900;28;20220;-72
2021/12/25 10:59:06;;;;;;;2.93;2.20;;;2.10;99.90;;;;;;5024837;28;20203;-72
2021/12/25 11:01:38;;;;;;;3.87;2.70;;;2.00;99.90;;;;;;5043758;28;20221;-73
2021/12/25 11:04:06;;;;;;;2.77;2.00;;;2.30;99.90;;;;;;5033312;28;20202;-72
2021/12/25 11:06:42;;;;;;;2.63;2.43;;;2.30;99.90;;;;;;5046613;28;20214;-72
2021/12/25 11:09:10;;;;;;;3.33;2.13;;;2.60;99.90;;;;;;5026136;28;20286;-73
2021/12/25 11:11:38;;;;;;;3.30;2.20;;;2.20;99.90;;;;;;5029760;28;20199;-72
2021/12/25 11:14:23;;;;;;;3.07;2.77;;;2.20;99.90;;;;;;5050390;28;20194;-72
2021/12/25 11:17:25;;;;;;;3.17;2.77;;;2.40;99.90;;;;;;5045174;28;20222;-72
2021/12/25 11:19:59;;;;;;;4.20;2.60;;;2.70;99.90;;;;;;5021965;28;20195;-72
2021/12/25 11:22:28;;;;;;;4.77;2.40;;;3.70;99.90;;;;;;5050568;28;20214;-72
2021/12/25 11:24:58;;;;;;;2.97;2.20;;;5.10;99.90;;;;;;5042877;28;20196;-73
2021/12/25 11:27:25;;;;;;;2.90;2.33;;;5.00;99.90;;;;;;5047847;28;20213;-72
2021/12/25 11:29:54;;;;;;;4.47;2.40;;;5.10;99.70;;;;;;5025162;28;20206;-72
2021/12/25 11:32:22;;;;;;;2.90;1.87;;;4.90;99.90;;;;;;5033473;28;20195;-72
2021/12/25 11:34:51;;;;;;;2.13;1.93;;;5.20;99.00;;;;;;5025398;28;20202;-72
2021/12/25 11:37:19;;;;;;;1.97;1.77;;;5.40;99.00;;;;;;5025551;28;20220;-72
2021/12/25 11:39:51;;;;;;;1.80;1.70;;;4.80;97.30;;;;;;5027907;28;20226;-72
2021/12/25 11:42:22;;;;;;;2.57;2.10;;;4.60;99.20;;;;;;5021592;28;20214;-73
2021/12/25 11:44:53;;;;;;;3.27;2.07;;;4.90;98.70;;;;;;5025624;28;20216;-71
2021/12/25 11:47:36;;;;;;;2.40;2.20;;;5.50;97.50;;;;;;5024710;28;20224;-71
2021/12/25 11:50:58;;;;;;;2.33;1.87;;;4.00;97.00;;;;;;5047821;28;20203;-72
2021/12/25 11:53:43;;;;;;;2.83;2.00;;;4.70;99.40;;;;;;5029590;28;20203;-71
2021/12/25 11:56:34;;;;;;;2.07;1.57;;;6.90;95.10;;;;;;5037331;28;20222;-72
2021/12/25 11:59:12;;;;;;;1.97;1.30;;;6.30;95.20;;;;;;5040811;28;20208;-71
2021/12/25 12:02:04;;;;;;;1.70;1.40;;;6.40;93.60;;;;;;5035632;28;20220;-71
2021/12/25 12:04:35;;;;;;;2.73;1.70;;;6.90;93.10;;;;;;5032837;28;20634;-71
2021/12/25 12:07:08;;;;;;;2.00;1.50;;;7.30;92.60;;;;;;5044576;28;20210;-72
2021/12/25 12:09:56;;;;;;;2.60;1.50;;;7.50;91.10;;;;;;5053456;28;20217;-71
2021/12/25 12:12:42;;;;;;;1.77;1.60;;;5.70;90.60;;;;;;5055643;28;20197;-71
2021/12/25 12:15:47;;;;;;;1.50;1.40;;;6.50;93.00;;;;;;5027303;28;20243;-71
2021/12/25 12:18:41;;;;;;;1.30;1.20;;;6.50;90.70;;;;;;5052411;28;20209;-72
2021/12/25 12:21:39;;;;;;;1.50;1.30;;;7.90;89.60;;;;;;5033529;28;20202;-72
2021/12/25 12:24:43;;;;;;;1.40;1.30;;;8.30;83.20;;;;;;5050843;28;20182;-72
2021/12/25 12:27:11;;;;;;;1.87;1.20;;;7.90;84.40;;;;;;5032570;28;20225;-72
2021/12/25 12:29:49;;;;;;;1.67;1.50;;;6.50;80.50;;;;;;5047826;28;20187;-71
2021/12/25 12:32:44;;;;;;;2.37;1.50;;;7.60;84.10;;;;;;5032620;28;20197;-72
2021/12/25 12:35:32;;;;;;;2.47;1.30;;;7.70;80.40;;;;;;5027537;28;20198;-72
2021/12/25 12:38:27;;;;;;;1.43;1.07;;;9.40;76.70;;;;;;5028074;28;20198;-72
2021/12/25 12:41:26;;;;;;;1.50;1.20;;;9.60;75.70;;;;;;5048094;28;20205;-72
2021/12/25 12:43:57;;;;;;;1.03;0.93;;;8.00;72.00;;;;;;5029470;28;20206;-72
2021/12/25 12:46:26;;;;;;;0.93;0.90;;;8.00;74.60;;;;;;5035524;28;20215;-72
2021/12/25 12:49:04;;;;;;;1.23;0.90;;;9.30;71.40;;;;;;5051001;28;20202;-73
2021/12/25 12:51:32;;;;;;;2.27;1.10;;;9.90;67.40;;;;;;5050594;28;20671;-72
2021/12/25 12:54:05;;;;;;;1.63;1.10;;;8.90;67.70;;;;;;5033815;28;20210;-72
2021/12/25 12:56:32;;;;;;;1.10;0.90;;;8.40;67.70;;;;;;5050878;28;20214;-71
2021/12/25 12:59:05;;;;;;;1.00;0.80;;;8.00;67.30;;;;;;5028602;28;20210;-73
2021/12/25 13:02:22;;;;;;;1.40;1.17;;;9.50;64.60;;;;;;5035157;28;20202;-72
2021/12/25 13:04:52;;;;;;;1.00;0.90;;;9.40;62.20;;;;;;5050437;28;20202;-71
2021/12/25 13:07:22;;;;;;;0.97;0.80;;;9.00;61.10;;;;;;5052647;28;20213;-74
2021/12/25 13:10:01;;;;;;;0.80;0.80;;;9.40;61.70;;;;;;5032664;28;20209;-74
2021/12/25 13:12:40;;;;;;;1.00;0.90;;;9.40;61.80;;;;;;5040109;28;20196;-73
2021/12/25 13:15:21;;;;;;;0.83;0.70;;;9.20;60.60;;;;;;5035181;28;20212;-74
2021/12/25 13:17:54;;;;;;;1.43;0.80;;;9.80;59.20;;;;;;5032380;28;20561;-73
2021/12/25 13:20:35;;;;;;;0.90;0.90;;;8.30;58.40;;;;;;5050937;28;20186;-73
2021/12/25 13:23:04;;;;;;;0.77;0.70;;;9.40;59.20;;;;;;5036339;28;20210;-74
2021/12/25 13:25:34;;;;;;;2.37;1.07;;;9.40;57.40;;;;;;5032117;28;20209;-74
2021/12/25 13:28:04;;;;;;;1.20;1.10;;;9.60;57.00;;;;;;5024278;28;20206;-74
2021/12/25 13:30:33;;;;;;;1.43;1.20;;;10.60;54.80;;;;;;5060007;28;20197;-74
2021/12/25 13:33:12;;;;;;;0.80;0.80;;;9.80;54.80;;;;;;5035759;28;20206;-73
2021/12/25 13:35:40;;;;;;;1.27;0.90;;;8.00;57.30;;;;;;5054655;28;20190;-73
2021/12/25 13:38:08;;;;;;;1.73;0.90;;;8.20;56.00;;;;;;5049124;28;20191;-73
2021/12/25 13:40:47;;;;;;;1.43;1.10;;;8.30;56.00;;;;;;5036815;28;20206;-74
2021/12/25 13:43:14;;;;;;;1.00;0.90;;;9.60;56.30;;;;;;5054496;28;20210;-73
2021/12/25 13:45:42;;;;;;;1.43;1.00;;;9.60;54.40;;;;;;5037284;28;20206;-74
2021/12/25 13:48:09;;;;;;;1.73;0.73;;;9.00;53.00;;;;;;5033969;28;20190;-73
2021/12/25 13:50:37;;;;;;;1.00;0.77;;;8.90;54.10;;;;;;5036711;28;20205;-74
2021/12/25 13:53:14;;;;;;;1.27;0.90;;;9.90;53.80;;;;;;5037326;28;20198;-74
2021/12/25 13:55:48;;;;;;;1.13;1.00;;;10.30;51.20;;;;;;5050750;28;20201;-73
2021/12/25 13:58:17;;;;;;;1.10;0.90;;;9.30;51.80;;;;;;5043062;28;20198;-73
2021/12/25 14:00:48;;;;;;;1.00;0.90;;;10.40;51.20;;;;;;5052678;28;20198;-74
2021/12/25 14:03:18;;;;;;;1.13;0.80;;;9.10;51.90;;;;;;5044813;28;20214;-72
2021/12/25 14:05:50;;;;;;;1.83;1.00;;;9.10;52.70;;;;;;5038807;28;20293;-73
2021/12/25 14:08:20;;;;;;;0.83;0.70;;;9.20;53.60;;;;;;5049220;28;20201;-73
2021/12/25 14:10:49;;;;;;;1.10;0.80;;;9.80;51.70;;;;;;5053386;28;20208;-74
2021/12/25 14:13:19;;;;;;;2.10;0.70;;;10.40;50.80;;;;;;5052364;28;20191;-74
2021/12/25 14:15:51;;;;;;;1.10;0.80;;;11.80;46.10;;;;;;5035186;28;20229;-74
2021/12/25 14:18:39;;;;;;;1.33;0.93;;;12.60;44.80;;;;;;5023376;28;20210;-74
2021/12/25 14:21:15;;;;;;;1.47;0.97;;;11.90;43.90;;;;;;5034482;28;20554;-73
2021/12/25 14:23:43;;;;;;;2.40;0.80;;;9.90;46.70;;;;;;5052025;28;20212;-74